createdAt,value
2023-02-23T00:02:46.408Z,100671.65
2023-02-23T00:07:49.421Z,100669.95
2023-02-23T00:12:52.335Z,100663.80
2023-02-23T00:17:56.661Z,100660.23
2023-02-23T00:22:59.977Z,100661.91
2023-02-23T00:28:02.878Z,100659.87
2023-02-23T00:33:05.789Z,100661.91
2023-02-23T00:38:08.896Z,100664.29
2023-02-23T00:43:11.710Z,100660.36
2023-02-23T00:48:14.807Z,100660.35
2023-02-23T00:53:17.714Z,100657.11
2023-02-23T00:58:20.991Z,100656.42
2023-02-23T01:03:24.132Z,100656.08
2023-02-23T01:08:28.630Z,100653.50
2023-02-23T01:13:31.679Z,100650.60
2023-02-23T01:18:35.910Z,100646.86
2023-02-23T01:23:38.754Z,100643.59
2023-02-23T01:28:41.718Z,100638.80
2023-02-23T01:33:44.831Z,100632.31
2023-02-23T01:38:49.388Z,100627.52
2023-02-23T01:44:15.352Z,100623.25
2023-02-23T01:49:23.583Z,100624.09
2023-02-23T01:54:31.360Z,100618.97
2023-02-23T01:59:43.239Z,100610.60
2023-02-23T02:04:46.897Z,100605.13
2023-02-23T02:10:11.251Z,100601.54
2023-02-23T02:15:17.905Z,100601.21
2023-02-23T02:20:43.056Z,100599.50
2023-02-23T02:26:01.412Z,100598.46
2023-02-23T02:31:24.193Z,100595.73
2023-02-23T02:37:05.166Z,100594.52
2023-02-23T02:42:50.352Z,100593.33
2023-02-23T02:47:56.328Z,100592.80
2023-02-23T02:53:05.996Z,100593.14
2023-02-23T02:58:11.564Z,100592.79
2023-02-23T03:03:47.131Z,100589.19
2023-02-23T03:09:54.140Z,100593.95
2023-02-23T03:16:04.335Z,100587.80
2023-02-23T03:21:38.565Z,100589.31
2023-02-23T03:27:11.266Z,100591.50
2023-02-23T03:32:55.556Z,100589.78
2023-02-23T03:38:28.960Z,100587.75
2023-02-23T03:44:02.275Z,100585.23
2023-02-23T03:49:28.632Z,100582.37
2023-02-23T03:54:55.923Z,100576.10
2023-02-23T04:00:22.674Z,100572.04
2023-02-23T04:05:48.513Z,100570.55
2023-02-23T04:11:20.172Z,100565.27
2023-02-23T04:16:23.427Z,100566.33
2023-02-23T04:21:26.405Z,100563.96
2023-02-23T04:26:29.324Z,100562.27
2023-02-23T04:31:32.305Z,100560.23
2023-02-23T04:36:36.557Z,100558.70
2023-02-23T04:41:39.458Z,100554.45
2023-02-23T04:46:42.358Z,100549.51
2023-02-23T04:51:45.366Z,100554.63
2023-02-23T04:56:48.275Z,100551.89
2023-02-23T05:01:51.175Z,100542.86
2023-02-23T05:06:54.285Z,100543.20
2023-02-23T05:11:57.396Z,100538.25
2023-02-23T05:17:00.400Z,100539.95
2023-02-23T05:22:03.681Z,100532.13
2023-02-23T05:27:07.918Z,100527.86
2023-02-23T05:32:10.965Z,100528.02
2023-02-23T05:37:14.000Z,100521.04
2023-02-23T05:42:17.496Z,100515.57
2023-02-23T05:47:20.486Z,100511.98
2023-02-23T05:52:24.920Z,100512.52
2023-02-23T05:57:28.994Z,100514.73
2023-02-23T06:02:32.471Z,100508.92
2023-02-23T06:07:35.688Z,100509.92
2023-02-23T06:12:38.598Z,100505.28
2023-02-23T06:17:41.593Z,100507.98
2023-02-23T06:22:45.009Z,100505.83
2023-02-23T06:27:47.914Z,100501.23
2023-02-23T06:32:50.819Z,100499.98
2023-02-23T06:37:54.075Z,100494.04
2023-02-23T06:42:57.241Z,100492.85
2023-02-23T06:48:01.015Z,100486.83
2023-02-23T06:53:04.080Z,100484.39
2023-02-23T06:58:08.209Z,100486.02
2023-02-23T07:03:11.518Z,100484.91
2023-02-23T07:08:14.459Z,100479.98
2023-02-23T07:13:17.433Z,100477.52
2023-02-23T07:18:20.369Z,100474.00
2023-02-23T07:23:23.453Z,100473.20
2023-02-23T07:28:28.604Z,100467.45
2023-02-23T07:33:32.862Z,100457.91
2023-02-23T07:38:36.782Z,100450.23
2023-02-23T07:43:40.083Z,100444.55
2023-02-23T07:48:46.737Z,100440.25
2023-02-23T07:53:49.880Z,100437.39
2023-02-23T07:58:52.785Z,100431.74
2023-02-23T08:03:55.744Z,100436.73
2023-02-23T08:09:01.197Z,100424.56
2023-02-23T08:14:04.169Z,100428.36
2023-02-23T08:19:07.070Z,100422.97
2023-02-23T08:24:11.095Z,100421.96
2023-02-23T08:29:14.000Z,100409.20
2023-02-23T08:34:17.825Z,100413.66
2023-02-23T08:39:21.344Z,100410.02
2023-02-23T08:44:24.351Z,100405.71
2023-02-23T08:49:27.264Z,100405.80
2023-02-23T08:54:30.874Z,100397.48
2023-02-23T08:59:33.983Z,100397.86
2023-02-23T09:04:37.708Z,100386.05
2023-02-23T09:09:40.920Z,100382.63
2023-02-23T09:14:43.820Z,100379.26
2023-02-23T09:19:46.721Z,100371.94
2023-02-23T09:24:49.643Z,100372.45
2023-02-23T09:29:52.535Z,100363.04
2023-02-23T09:34:55.846Z,100356.84
2023-02-23T09:39:58.955Z,100354.69
2023-02-23T09:45:17.219Z,100346.10
2023-02-23T09:50:27.090Z,100345.84
2023-02-23T09:55:31.020Z,100337.19
2023-02-23T10:00:40.988Z,100325.08
2023-02-23T10:05:48.521Z,100326.46
2023-02-23T10:10:59.584Z,100328.33
2023-02-23T10:16:37.731Z,100327.78
2023-02-23T10:21:47.911Z,100325.34
2023-02-23T10:26:55.742Z,100321.91
2023-02-23T10:32:04.770Z,100316.25
2023-02-23T10:37:11.458Z,100304.43
2023-02-23T10:42:20.325Z,100302.78
2023-02-23T10:47:33.369Z,100292.70
2023-02-23T10:52:44.625Z,100281.50
2023-02-23T10:57:47.556Z,100278.42
2023-02-23T11:02:50.416Z,100265.94
2023-02-23T11:08:19.895Z,100258.40
2023-02-23T11:13:26.678Z,100248.75
2023-02-23T11:18:30.612Z,100246.80
2023-02-23T11:23:37.031Z,100231.55
2023-02-23T11:28:43.423Z,100223.30
2023-02-23T11:33:48.513Z,100216.70
2023-02-23T11:39:24.856Z,100210.23
2023-02-23T11:44:28.137Z,100208.94
2023-02-23T11:49:36.162Z,100203.94
2023-02-23T11:54:52.172Z,100184.91
2023-02-23T11:59:58.357Z,100173.98
2023-02-23T12:05:10.016Z,100170.25
2023-02-23T12:10:33.938Z,100164.94
2023-02-23T12:15:55.602Z,100162.85
2023-02-23T12:21:08.031Z,100165.31
2023-02-23T12:26:19.081Z,100150.13
2023-02-23T12:31:28.701Z,100148.84
2023-02-23T12:36:51.157Z,100145.92
2023-02-23T12:42:32.347Z,100135.60
2023-02-23T12:47:56.347Z,100127.77
2023-02-23T12:53:12.554Z,100118.27
2023-02-23T12:58:23.621Z,100113.86
2023-02-23T13:03:41.514Z,100105.17
2023-02-23T13:09:02.759Z,100096.27
2023-02-23T13:14:11.800Z,100081.10
2023-02-23T13:19:47.164Z,100075.79
2023-02-23T13:24:54.267Z,100068.54
2023-02-23T13:29:59.350Z,100056.58
2023-02-23T13:35:13.491Z,100049.66
2023-02-23T13:40:35.884Z,100036.70
2023-02-23T13:46:01.876Z,100025.98
2023-02-23T13:51:18.486Z,100015.00
2023-02-23T13:56:28.284Z,100005.36
2023-02-23T14:01:44.011Z,99995.33
2023-02-23T14:07:00.410Z,99981.51
2023-02-23T14:12:19.595Z,99972.52
2023-02-23T14:17:22.314Z,99968.65
2023-02-23T14:22:25.308Z,99961.28
2023-02-23T14:27:43.418Z,99956.42
2023-02-23T14:32:49.357Z,99949.79
2023-02-23T14:37:59.950Z,99937.39
2023-02-23T14:43:04.271Z,99940.10
2023-02-23T14:48:17.257Z,99930.16
2023-02-23T14:53:24.405Z,99928.35
2023-02-23T14:58:33.596Z,99921.33
2023-02-23T15:03:37.380Z,99915.96
2023-02-23T15:08:45.014Z,99902.80
2023-02-23T15:13:50.529Z,99894.11
2023-02-23T15:18:53.782Z,99884.17
2023-02-23T15:24:16.753Z,99870.08
2023-02-23T15:29:22.929Z,99861.46
2023-02-23T15:34:30.208Z,99856.56
2023-02-23T15:39:57.079Z,99845.61
2023-02-23T15:45:03.472Z,99831.67
2023-02-23T15:50:36.539Z,99821.59
2023-02-23T15:55:43.910Z,99815.73
2023-02-23T16:00:56.168Z,99810.74
2023-02-23T16:06:04.054Z,99808.31
2023-02-23T16:11:15.256Z,99804.59
2023-02-23T16:16:25.472Z,99807.34
2023-02-23T16:21:35.078Z,99800.96
2023-02-23T16:26:41.179Z,99792.76
2023-02-23T16:31:50.553Z,99784.38
2023-02-23T16:36:59.581Z,99784.07
2023-02-23T16:42:02.489Z,99778.08
2023-02-23T16:47:06.821Z,99766.09
2023-02-23T16:52:17.688Z,99760.05
2023-02-23T16:57:22.687Z,99763.29
2023-02-23T17:02:25.725Z,99756.50
2023-02-23T17:07:28.782Z,99752.10
2023-02-23T17:12:32.858Z,99748.54
2023-02-23T17:17:36.547Z,99738.34
2023-02-23T17:22:39.437Z,99733.02
2023-02-23T17:27:42.338Z,99729.24
2023-02-23T17:32:45.746Z,99729.28
2023-02-23T17:37:49.579Z,99716.73
2023-02-23T17:42:53.385Z,99711.10
2023-02-23T17:47:57.847Z,99698.36
2023-02-23T17:53:00.955Z,99691.83
2023-02-23T17:58:03.859Z,99687.54
2023-02-23T18:03:07.086Z,99675.96
2023-02-23T18:08:09.970Z,99664.51
2023-02-23T18:13:12.873Z,99656.50
2023-02-23T18:18:15.883Z,99645.05
2023-02-23T18:23:20.206Z,99641.46
2023-02-23T18:28:23.124Z,99631.92
2023-02-23T18:33:26.031Z,99615.81
2023-02-23T18:38:28.933Z,99612.26
2023-02-23T18:43:31.837Z,99610.61
2023-02-23T18:48:35.765Z,99606.73
2023-02-23T18:53:38.977Z,99595.80
2023-02-23T18:58:44.703Z,99590.36
2023-02-23T19:03:49.708Z,99583.88
2023-02-23T19:08:57.415Z,99577.58
2023-02-23T19:14:03.980Z,99576.13
2023-02-23T19:19:08.548Z,99570.56
2023-02-23T19:24:11.447Z,99564.85
2023-02-23T19:29:14.252Z,99558.79
2023-02-23T19:34:17.160Z,99558.38
2023-02-23T19:39:20.199Z,99546.78
2023-02-23T19:44:23.069Z,99544.13
2023-02-23T19:49:26.178Z,99539.46
2023-02-23T19:54:34.131Z,99531.70
2023-02-23T19:59:37.937Z,99523.33
2023-02-23T20:04:40.935Z,99513.73
2023-02-23T20:09:44.554Z,99507.98
2023-02-23T20:14:49.723Z,99493.25
2023-02-23T20:19:52.998Z,99494.05
2023-02-23T20:24:57.153Z,99488.06
2023-02-23T20:30:00.476Z,99478.63
2023-02-23T20:35:03.578Z,99465.09
2023-02-23T20:40:18.677Z,99458.64
2023-02-23T20:45:24.741Z,99452.23
2023-02-23T20:50:34.056Z,99444.17
2023-02-23T20:55:37.419Z,99430.46
2023-02-23T21:00:40.627Z,99428.89
2023-02-23T21:05:43.539Z,99420.34
2023-02-23T21:10:48.915Z,99413.39
2023-02-23T21:16:01.300Z,99406.64
2023-02-23T21:21:10.030Z,99397.96
2023-02-23T21:26:16.265Z,99381.63
2023-02-23T21:31:19.631Z,99377.85
2023-02-23T21:36:23.306Z,99373.50
2023-02-23T21:41:27.721Z,99368.45
2023-02-23T21:46:32.398Z,99367.73
2023-02-23T21:51:36.806Z,99359.55
2023-02-23T21:56:39.818Z,99354.68
2023-02-23T22:01:43.704Z,99343.95
2023-02-23T22:06:46.751Z,99336.34
2023-02-23T22:11:50.163Z,99329.77
2023-02-23T22:16:53.067Z,99318.44
2023-02-23T22:21:55.971Z,99317.58
2023-02-23T22:27:01.129Z,99313.13
2023-02-23T22:32:04.225Z,99309.55
2023-02-23T22:37:07.653Z,99304.60
2023-02-23T22:42:12.922Z,99298.04
2023-02-23T22:47:15.919Z,99291.70
2023-02-23T22:52:18.841Z,99284.39
2023-02-23T22:57:21.933Z,99275.98
2023-02-23T23:02:24.936Z,99268.09
2023-02-23T23:07:29.071Z,99255.98
2023-02-23T23:12:34.427Z,99253.09
2023-02-23T23:17:38.148Z,99246.07
2023-02-23T23:22:41.256Z,99237.94
2023-02-23T23:27:47.692Z,99228.98
2023-02-23T23:32:50.627Z,99224.31
2023-02-23T23:37:53.773Z,99215.27
2023-02-23T23:42:56.665Z,99200.31
2023-02-23T23:47:59.572Z,99194.55
2023-02-23T23:53:04.696Z,99186.77
2023-02-23T23:58:07.524Z,99180.81
